DLH712 EDDF-RKSI
Flight info
| Callsign | DLH712 |
|---|---|
| Flight time | N/A |
| Altitude | 31000 |
| Route | SULUS7S/18 SULUS Z650 VEMUT/N0480F350 DCT PEPIK DCT BUDOP/N0482F370 DCT DINRO N743 UDROS UM859 KARDE UN644 ROLIN DCT TAGAR DCT BT DCT BARAD M747 SUBUT T916 BALUN/K0889F370 T916 ARNUS/K0893F390 T916 PIGAL M610 RULAD/K0885S1190 A343 POSOT B215 FKG W188 BATUS/K0889S1250 W188 LIKMI W270 DKO W69 HUR B339 LADIX W34 VAPGU W100 ORAVA W201 UNSEK A326 DONVO G597 AGAVO/N0450F290 Y644 REBIT REBIT2H |
| Aircraft | A359/H-SADE2E3GHIJ1J2J3J4J5M1P2RWXYZ/LB1D1 |
Departure
| Time | N/A |
|---|---|
| Airport | Frankfurt Main Airport (EDDF) |
Arrival
| Time | 2026-05-05 08:03 |
|---|---|
| Airport | Incheon International Airport (RKSI) |
| Time | Latitude | Longitude | Altitude | Speed | Heading |
|---|---|---|---|---|---|
| 2026-05-05 02:55 | 44.05977 | 73.56363 | 39078 ft | 495 kts | 96° |
| 2026-05-05 02:55 | 44.05564 | 73.61105 | 39076 ft | 495 kts | 96° |
| 2026-05-05 02:56 | 44.04731 | 73.70609 | 39071 ft | 495 kts | 96° |
| 2026-05-05 02:56 | 44.03891 | 73.80113 | 39074 ft | 496 kts | 96° |
| 2026-05-05 02:57 | 44.03047 | 73.89559 | 39073 ft | 496 kts | 96° |
| 2026-05-05 02:57 | 44.02187 | 73.99075 | 39072 ft | 497 kts | 96° |
| 2026-05-05 02:58 | 44.01316 | 74.08625 | 39074 ft | 499 kts | 96° |
| 2026-05-05 02:58 | 44.00437 | 74.18182 | 39082 ft | 499 kts | 96° |
| 2026-05-05 02:59 | 43.99542 | 74.27803 | 39083 ft | 498 kts | 96° |
| 2026-05-05 02:59 | 43.98654 | 74.37269 | 39086 ft | 497 kts | 96° |
| 2026-05-05 03:00 | 43.97758 | 74.46759 | 39087 ft | 495 kts | 96° |
| 2026-05-05 03:00 | 43.96876 | 74.56248 | 39096 ft | 495 kts | 96° |
| 2026-05-05 03:01 | 43.96055 | 74.65744 | 39098 ft | 495 kts | 96° |
| 2026-05-05 03:01 | 43.95234 | 74.75260 | 39098 ft | 497 kts | 96° |
| 2026-05-05 03:02 | 43.94398 | 74.84773 | 39103 ft | 497 kts | 96° |
| 2026-05-05 03:02 | 43.93543 | 74.94292 | 39101 ft | 497 kts | 96° |
| 2026-05-05 03:03 | 43.92680 | 75.03800 | 39103 ft | 497 kts | 96° |
| 2026-05-05 03:03 | 43.91809 | 75.13316 | 39107 ft | 496 kts | 96° |
| 2026-05-05 03:04 | 43.90933 | 75.22801 | 39108 ft | 495 kts | 96° |
| 2026-05-05 03:04 | 43.90051 | 75.32272 | 39108 ft | 495 kts | 97° |
| 2026-05-05 03:05 | 43.89162 | 75.41742 | 39109 ft | 495 kts | 97° |
| 2026-05-05 03:05 | 43.88265 | 75.51207 | 39109 ft | 495 kts | 97° |
| 2026-05-05 03:06 | 43.87359 | 75.60669 | 39109 ft | 495 kts | 97° |
| 2026-05-05 03:06 | 43.86445 | 75.70138 | 39108 ft | 495 kts | 97° |
| 2026-05-05 03:07 | 43.85526 | 75.79599 | 39117 ft | 496 kts | 97° |
| 2026-05-05 03:07 | 43.84596 | 75.89060 | 39111 ft | 496 kts | 97° |
| 2026-05-05 03:08 | 43.83657 | 75.98519 | 39109 ft | 496 kts | 97° |
| 2026-05-05 03:08 | 43.82657 | 76.07977 | 39111 ft | 496 kts | 98° |
| 2026-05-05 03:09 | 43.81527 | 76.17332 | 39113 ft | 496 kts | 99° |
| 2026-05-05 03:09 | 43.80377 | 76.26745 | 39113 ft | 496 kts | 99° |
| 2026-05-05 03:10 | 43.79240 | 76.36179 | 39107 ft | 496 kts | 99° |
| 2026-05-05 03:10 | 43.78109 | 76.45603 | 39110 ft | 497 kts | 99° |
| 2026-05-05 03:11 | 43.76970 | 76.55031 | 39108 ft | 497 kts | 99° |
| 2026-05-05 03:11 | 43.75820 | 76.64455 | 39104 ft | 497 kts | 99° |
| 2026-05-05 03:12 | 43.74663 | 76.73884 | 39102 ft | 497 kts | 99° |
| 2026-05-05 03:12 | 43.73500 | 76.83303 | 39100 ft | 497 kts | 99° |
| 2026-05-05 03:13 | 43.72328 | 76.92724 | 39103 ft | 497 kts | 99° |
| 2026-05-05 03:13 | 43.71144 | 77.02154 | 39091 ft | 498 kts | 99° |
| 2026-05-05 03:14 | 43.69956 | 77.11564 | 39089 ft | 497 kts | 99° |
| 2026-05-05 03:14 | 43.68759 | 77.20993 | 39087 ft | 498 kts | 99° |
| 2026-05-05 03:15 | 43.67553 | 77.30416 | 39091 ft | 499 kts | 99° |
| 2026-05-05 03:15 | 43.66327 | 77.39851 | 39088 ft | 499 kts | 99° |
| 2026-05-05 03:16 | 43.65092 | 77.49287 | 39089 ft | 499 kts | 100° |
| 2026-05-05 03:16 | 43.63853 | 77.58720 | 39089 ft | 499 kts | 100° |
| 2026-05-05 03:17 | 43.62606 | 77.68157 | 39090 ft | 500 kts | 100° |
| 2026-05-05 03:17 | 43.61351 | 77.77593 | 39089 ft | 500 kts | 100° |
| 2026-05-05 03:18 | 43.60086 | 77.87037 | 39086 ft | 500 kts | 100° |
| 2026-05-05 03:18 | 43.58816 | 77.96461 | 39099 ft | 500 kts | 100° |
| 2026-05-05 03:19 | 43.57404 | 78.10715 | 39094 ft | 500 kts | 92° |
| 2026-05-05 03:19 | 43.57178 | 78.20302 | 39089 ft | 500 kts | 90° |
| 2026-05-05 03:20 | 43.57027 | 78.29895 | 39089 ft | 501 kts | 90° |
| 2026-05-05 03:20 | 43.56867 | 78.39424 | 39094 ft | 500 kts | 91° |
| 2026-05-05 03:21 | 43.56686 | 78.49018 | 39095 ft | 501 kts | 91° |
| 2026-05-05 03:21 | 43.56491 | 78.58614 | 39093 ft | 500 kts | 91° |
| 2026-05-05 03:22 | 43.56288 | 78.68207 | 39093 ft | 501 kts | 91° |
| 2026-05-05 03:22 | 43.56075 | 78.77811 | 39089 ft | 501 kts | 91° |
| 2026-05-05 03:23 | 43.55892 | 78.85859 | 39090 ft | 501 kts | 91° |
| 2026-05-05 03:23 | 43.55667 | 78.95401 | 39090 ft | 501 kts | 91° |
| 2026-05-05 03:24 | 43.55434 | 79.05004 | 39091 ft | 501 kts | 91° |
| 2026-05-05 03:24 | 43.55193 | 79.14616 | 39091 ft | 502 kts | 91° |
| 2026-05-05 03:25 | 43.54942 | 79.24230 | 39092 ft | 502 kts | 91° |
| 2026-05-05 03:25 | 43.54686 | 79.33857 | 39097 ft | 502 kts | 91° |
| 2026-05-05 03:26 | 43.54417 | 79.43470 | 39108 ft | 502 kts | 91° |
| 2026-05-05 03:26 | 43.54141 | 79.53096 | 39101 ft | 503 kts | 91° |
| 2026-05-05 03:27 | 43.53859 | 79.62746 | 39105 ft | 504 kts | 91° |
| 2026-05-05 03:27 | 43.53569 | 79.72400 | 39111 ft | 504 kts | 91° |
| 2026-05-05 03:28 | 43.53270 | 79.82050 | 39122 ft | 504 kts | 91° |
| 2026-05-05 03:28 | 43.52966 | 79.91710 | 39121 ft | 505 kts | 92° |
| 2026-05-05 03:29 | 43.52646 | 80.01376 | 39124 ft | 505 kts | 92° |
| 2026-05-05 03:29 | 43.52317 | 80.11039 | 39124 ft | 505 kts | 92° |
| 2026-05-05 03:30 | 43.51983 | 80.20713 | 39130 ft | 505 kts | 92° |
| 2026-05-05 03:30 | 43.51644 | 80.30397 | 39129 ft | 506 kts | 92° |
| 2026-05-05 03:31 | 43.51295 | 80.40080 | 39129 ft | 506 kts | 92° |
| 2026-05-05 03:31 | 43.50939 | 80.49769 | 39143 ft | 506 kts | 92° |
| 2026-05-05 03:32 | 43.50572 | 80.59453 | 39145 ft | 507 kts | 92° |
| 2026-05-05 03:32 | 43.50197 | 80.69143 | 39143 ft | 507 kts | 92° |
| 2026-05-05 03:33 | 43.49863 | 80.78848 | 39143 ft | 507 kts | 91° |
| 2026-05-05 03:33 | 43.49745 | 80.88557 | 39142 ft | 507 kts | 90° |
| 2026-05-05 03:34 | 43.49651 | 80.98267 | 39140 ft | 508 kts | 90° |
| 2026-05-05 03:34 | 43.49517 | 81.07994 | 39140 ft | 508 kts | 91° |
| 2026-05-05 03:35 | 43.49354 | 81.17656 | 39143 ft | 508 kts | 91° |
| 2026-05-05 03:35 | 43.49178 | 81.27443 | 39145 ft | 508 kts | 91° |
| 2026-05-05 03:36 | 43.48996 | 81.37191 | 39142 ft | 510 kts | 91° |
| 2026-05-05 03:36 | 43.48805 | 81.46944 | 39142 ft | 510 kts | 91° |
| 2026-05-05 03:37 | 43.48606 | 81.56712 | 39141 ft | 510 kts | 91° |
| 2026-05-05 03:37 | 43.48400 | 81.66483 | 39136 ft | 510 kts | 91° |
| 2026-05-05 03:38 | 43.48189 | 81.76187 | 39137 ft | 511 kts | 91° |
| 2026-05-05 03:38 | 43.47946 | 81.86030 | 39132 ft | 511 kts | 92° |
| 2026-05-05 03:39 | 43.47694 | 81.95747 | 39129 ft | 511 kts | 92° |
| 2026-05-05 03:39 | 43.47437 | 82.05519 | 39135 ft | 511 kts | 92° |
| 2026-05-05 03:40 | 43.47174 | 82.15309 | 39127 ft | 511 kts | 92° |
| 2026-05-05 03:40 | 43.46903 | 82.25103 | 39127 ft | 511 kts | 92° |
| 2026-05-05 03:41 | 43.46623 | 82.34878 | 39129 ft | 511 kts | 92° |
| 2026-05-05 03:41 | 43.46335 | 82.44661 | 39131 ft | 512 kts | 92° |
| 2026-05-05 03:42 | 43.46038 | 82.54469 | 39129 ft | 513 kts | 92° |
| 2026-05-05 03:42 | 43.45734 | 82.64270 | 39129 ft | 513 kts | 92° |
| 2026-05-05 03:43 | 43.45420 | 82.74084 | 39135 ft | 513 kts | 92° |
| 2026-05-05 03:43 | 43.45097 | 82.83896 | 39136 ft | 514 kts | 92° |
| 2026-05-05 03:44 | 43.44764 | 82.93727 | 39148 ft | 515 kts | 92° |
| 2026-05-05 03:44 | 43.44423 | 83.03577 | 39154 ft | 515 kts | 92° |
| 2026-05-05 03:45 | 43.44073 | 83.13420 | 39154 ft | 515 kts | 93° |
| 2026-05-05 03:45 | 43.43716 | 83.23263 | 39160 ft | 516 kts | 93° |
| 2026-05-05 03:46 | 43.43378 | 83.32406 | 39158 ft | 517 kts | 93° |
| 2026-05-05 03:46 | 43.42980 | 83.41949 | 39165 ft | 518 kts | 95° |
| 2026-05-05 03:47 | 43.42167 | 83.51790 | 39170 ft | 518 kts | 98° |
| 2026-05-05 03:47 | 43.41234 | 83.61617 | 39166 ft | 518 kts | 98° |
| 2026-05-05 03:48 | 43.40344 | 83.71457 | 39168 ft | 519 kts | 97° |
| 2026-05-05 03:48 | 43.39489 | 83.81304 | 39168 ft | 519 kts | 97° |
| 2026-05-05 03:49 | 43.38637 | 83.91145 | 39164 ft | 519 kts | 97° |
| 2026-05-05 03:49 | 43.37774 | 84.00989 | 39164 ft | 518 kts | 98° |
| 2026-05-05 03:50 | 43.36903 | 84.10827 | 39159 ft | 518 kts | 98° |
| 2026-05-05 03:50 | 43.36023 | 84.20658 | 39155 ft | 518 kts | 98° |
| 2026-05-05 03:51 | 43.35135 | 84.30478 | 39154 ft | 518 kts | 98° |
| 2026-05-05 03:51 | 43.34238 | 84.40319 | 39154 ft | 520 kts | 98° |
| 2026-05-05 03:52 | 43.33308 | 84.50172 | 39152 ft | 520 kts | 98° |
| 2026-05-05 03:52 | 43.32359 | 84.60018 | 39142 ft | 520 kts | 98° |
| 2026-05-05 03:53 | 43.31407 | 84.69866 | 39144 ft | 520 kts | 99° |
| 2026-05-05 03:53 | 43.30451 | 84.79722 | 39130 ft | 521 kts | 99° |
| 2026-05-05 03:54 | 43.29482 | 84.89586 | 39132 ft | 522 kts | 99° |
| 2026-05-05 03:54 | 43.28506 | 84.99445 | 39132 ft | 521 kts | 99° |
| 2026-05-05 03:55 | 43.27530 | 85.09308 | 39130 ft | 522 kts | 99° |
| 2026-05-05 03:55 | 43.26536 | 85.19130 | 39128 ft | 523 kts | 99° |
| 2026-05-05 03:56 | 43.25528 | 85.29020 | 39138 ft | 524 kts | 99° |
| 2026-05-05 03:56 | 43.24513 | 85.38917 | 39120 ft | 524 kts | 99° |
| 2026-05-05 03:57 | 43.23490 | 85.48810 | 39130 ft | 525 kts | 99° |
| 2026-05-05 03:57 | 43.22458 | 85.58712 | 39124 ft | 525 kts | 99° |
| 2026-05-05 03:58 | 43.21411 | 85.68622 | 39133 ft | 526 kts | 99° |
| 2026-05-05 03:58 | 43.20363 | 85.78515 | 39124 ft | 524 kts | 99° |
| 2026-05-05 03:59 | 43.19412 | 85.88425 | 39103 ft | 526 kts | 94° |
| 2026-05-05 03:59 | 43.20092 | 85.98362 | 39122 ft | 526 kts | 74° |
| 2026-05-05 04:00 | 43.21358 | 86.03066 | 39124 ft | 524 kts | 63° |
| 2026-05-05 04:00 | 43.23144 | 86.07411 | 39103 ft | 523 kts | 57° |
| 2026-05-05 04:00 | 43.27117 | 86.15791 | 39123 ft | 524 kts | 54° |
| 2026-05-05 04:01 | 43.31198 | 86.24086 | 39134 ft | 525 kts | 54° |
| 2026-05-05 04:01 | 43.35290 | 86.32414 | 39131 ft | 526 kts | 54° |
| 2026-05-05 04:02 | 43.39370 | 86.40750 | 39145 ft | 526 kts | 54° |
| 2026-05-05 04:02 | 43.43427 | 86.49124 | 39154 ft | 525 kts | 54° |
| 2026-05-05 04:03 | 43.47468 | 86.57497 | 39143 ft | 526 kts | 54° |
| 2026-05-05 04:03 | 43.51559 | 86.65884 | 39145 ft | 529 kts | 54° |
| 2026-05-05 04:04 | 43.55647 | 86.74306 | 39126 ft | 529 kts | 54° |
| 2026-05-05 04:04 | 43.59680 | 86.82787 | 39136 ft | 528 kts | 55° |
| 2026-05-05 04:05 | 43.62613 | 86.89026 | 39128 ft | 529 kts | 54° |
| 2026-05-05 04:05 | 43.66626 | 86.97555 | 39104 ft | 529 kts | 54° |
| 2026-05-05 04:06 | 43.70633 | 87.06087 | 39096 ft | 530 kts | 54° |
| 2026-05-05 04:06 | 43.74650 | 87.14642 | 39083 ft | 531 kts | 54° |
| 2026-05-05 04:07 | 43.78651 | 87.23212 | 39079 ft | 530 kts | 55° |
| 2026-05-05 04:07 | 43.81969 | 87.30342 | 39063 ft | 530 kts | 54° |
| 2026-05-05 04:08 | 43.85960 | 87.38932 | 39083 ft | 530 kts | 54° |
| 2026-05-05 04:08 | 43.90587 | 87.48922 | 39076 ft | 530 kts | 55° |
| 2026-05-05 04:09 | 43.94743 | 87.57355 | 39083 ft | 528 kts | 50° |
| 2026-05-05 04:09 | 43.98525 | 87.64088 | 39062 ft | 528 kts | 49° |
| 2026-05-05 04:10 | 44.03035 | 87.72058 | 39073 ft | 528 kts | 49° |
| 2026-05-05 04:10 | 44.07511 | 87.80168 | 39061 ft | 529 kts | 50° |
| 2026-05-05 04:11 | 44.11949 | 87.88334 | 39065 ft | 529 kts | 50° |
| 2026-05-05 04:11 | 44.16128 | 87.96782 | 39056 ft | 533 kts | 60° |
| 2026-05-05 04:12 | 44.17598 | 88.01518 | 39059 ft | 535 kts | 71° |
| 2026-05-05 04:12 | 44.18587 | 88.06522 | 39059 ft | 535 kts | 76° |
| 2026-05-05 04:12 | 44.20187 | 88.16665 | 39060 ft | 538 kts | 78° |
| 2026-05-05 04:13 | 44.21659 | 88.26920 | 39059 ft | 540 kts | 78° |
| 2026-05-05 04:13 | 44.23138 | 88.37181 | 39053 ft | 539 kts | 78° |
| 2026-05-05 04:14 | 44.24631 | 88.47429 | 39056 ft | 539 kts | 78° |
| 2026-05-05 04:14 | 44.26127 | 88.57687 | 39050 ft | 540 kts | 78° |
| 2026-05-05 04:15 | 44.27615 | 88.67946 | 39047 ft | 540 kts | 78° |
| 2026-05-05 04:15 | 44.29091 | 88.78215 | 39042 ft | 540 kts | 78° |
| 2026-05-05 04:16 | 44.30559 | 88.88489 | 39038 ft | 540 kts | 78° |
| 2026-05-05 04:16 | 44.31765 | 88.96987 | 39041 ft | 542 kts | 78° |
| 2026-05-05 04:17 | 44.33221 | 89.07309 | 39039 ft | 542 kts | 78° |
| 2026-05-05 04:17 | 44.34668 | 89.17638 | 39037 ft | 542 kts | 78° |
| 2026-05-05 04:18 | 44.36107 | 89.27983 | 39037 ft | 542 kts | 78° |
| 2026-05-05 04:18 | 44.37538 | 89.38343 | 39036 ft | 544 kts | 78° |
| 2026-05-05 04:19 | 44.38962 | 89.48721 | 39028 ft | 543 kts | 78° |
| 2026-05-05 04:19 | 44.40367 | 89.59036 | 39028 ft | 543 kts | 78° |
| 2026-05-05 04:20 | 44.41049 | 89.69529 | 39029 ft | 543 kts | 95° |
| 2026-05-05 04:20 | 44.40487 | 89.74797 | 39031 ft | 539 kts | 106° |
| 2026-05-05 04:20 | 44.39565 | 89.79803 | 39025 ft | 539 kts | 108° |
| 2026-05-05 04:21 | 44.37416 | 89.89839 | 39029 ft | 539 kts | 110° |
| 2026-05-05 04:21 | 44.35173 | 89.99846 | 39032 ft | 539 kts | 110° |
| 2026-05-05 04:22 | 44.32955 | 90.09837 | 39032 ft | 538 kts | 110° |
| 2026-05-05 04:22 | 44.30754 | 90.19819 | 39029 ft | 538 kts | 110° |
| 2026-05-05 04:23 | 44.28554 | 90.29789 | 39031 ft | 538 kts | 110° |
| 2026-05-05 04:23 | 44.26343 | 90.39757 | 39028 ft | 537 kts | 110° |
| 2026-05-05 04:24 | 44.24124 | 90.49712 | 39031 ft | 538 kts | 110° |
| 2026-05-05 04:25 | 44.20772 | 90.64652 | 39033 ft | 538 kts | 110° |
| 2026-05-05 04:25 | 44.18527 | 90.74604 | 39034 ft | 539 kts | 110° |
| 2026-05-05 04:26 | 44.16271 | 90.84565 | 39028 ft | 540 kts | 110° |
| 2026-05-05 04:26 | 44.13999 | 90.94537 | 39031 ft | 541 kts | 110° |
| 2026-05-05 04:27 | 44.11719 | 91.04509 | 39031 ft | 541 kts | 110° |
| 2026-05-05 04:27 | 44.09437 | 91.14477 | 39029 ft | 540 kts | 111° |
| 2026-05-05 04:28 | 44.07141 | 91.24426 | 39027 ft | 541 kts | 111° |
| 2026-05-05 04:28 | 44.04847 | 91.34319 | 39031 ft | 541 kts | 111° |
| 2026-05-05 04:29 | 44.02533 | 91.44267 | 39025 ft | 541 kts | 111° |
| 2026-05-05 04:29 | 44.00196 | 91.54197 | 39020 ft | 540 kts | 111° |
| 2026-05-05 04:30 | 43.97840 | 91.64114 | 39030 ft | 542 kts | 111° |
| 2026-05-05 04:30 | 43.95467 | 91.74054 | 39025 ft | 542 kts | 111° |
| 2026-05-05 04:31 | 43.93073 | 91.84055 | 39021 ft | 542 kts | 111° |
| 2026-05-05 04:31 | 43.90708 | 91.93905 | 39033 ft | 542 kts | 111° |
| 2026-05-05 04:32 | 43.88310 | 92.03837 | 39013 ft | 544 kts | 111° |
| 2026-05-05 04:32 | 43.85906 | 92.13768 | 39015 ft | 543 kts | 111° |
| 2026-05-05 04:33 | 43.83490 | 92.23690 | 39011 ft | 543 kts | 112° |
| 2026-05-05 04:33 | 43.81067 | 92.33600 | 39010 ft | 544 kts | 112° |
| 2026-05-05 04:34 | 43.78629 | 92.43528 | 39000 ft | 546 kts | 112° |
| 2026-05-05 04:34 | 43.76178 | 92.53466 | 38996 ft | 546 kts | 112° |
| 2026-05-05 04:35 | 43.73717 | 92.63398 | 38993 ft | 546 kts | 112° |
| 2026-05-05 04:35 | 43.71250 | 92.73317 | 38975 ft | 546 kts | 112° |
| 2026-05-05 04:36 | 43.68772 | 92.83243 | 38982 ft | 546 kts | 112° |
| 2026-05-05 04:36 | 43.66283 | 92.93162 | 38991 ft | 546 kts | 112° |
| 2026-05-05 04:37 | 43.63803 | 93.03073 | 38988 ft | 546 kts | 112° |
| 2026-05-05 04:37 | 43.61425 | 93.13037 | 38978 ft | 546 kts | 111° |
| 2026-05-05 04:38 | 43.59068 | 93.22987 | 38986 ft | 546 kts | 111° |
| 2026-05-05 04:38 | 43.56684 | 93.32938 | 38984 ft | 547 kts | 111° |
| 2026-05-05 04:39 | 43.54275 | 93.42893 | 38982 ft | 548 kts | 112° |
| 2026-05-05 04:39 | 43.51853 | 93.52846 | 38966 ft | 548 kts | 112° |
| 2026-05-05 04:40 | 43.49423 | 93.62794 | 38970 ft | 547 kts | 112° |
| 2026-05-05 04:40 | 43.46985 | 93.72727 | 38968 ft | 547 kts | 112° |
| 2026-05-05 04:41 | 43.44545 | 93.82638 | 38954 ft | 548 kts | 112° |
| 2026-05-05 04:41 | 43.42085 | 93.92580 | 38955 ft | 549 kts | 112° |
| 2026-05-05 04:42 | 43.39621 | 94.02509 | 38961 ft | 549 kts | 112° |
| 2026-05-05 04:42 | 43.37144 | 94.12440 | 38965 ft | 549 kts | 113° |
| 2026-05-05 04:43 | 43.34658 | 94.22352 | 38954 ft | 549 kts | 113° |
| 2026-05-05 04:43 | 43.32152 | 94.32293 | 38964 ft | 552 kts | 113° |
| 2026-05-05 04:44 | 43.29634 | 94.42262 | 38960 ft | 552 kts | 113° |
| 2026-05-05 04:44 | 43.27125 | 94.52149 | 38965 ft | 553 kts | 113° |
| 2026-05-05 04:45 | 43.24583 | 94.62106 | 38951 ft | 553 kts | 113° |
| 2026-05-05 04:45 | 43.22032 | 94.72076 | 38949 ft | 554 kts | 113° |
| 2026-05-05 04:46 | 43.19473 | 94.82047 | 38930 ft | 555 kts | 113° |
| 2026-05-05 04:46 | 43.16903 | 94.92006 | 38911 ft | 554 kts | 114° |
| 2026-05-05 04:47 | 43.14218 | 95.01875 | 38916 ft | 549 kts | 120° |
| 2026-05-05 04:47 | 43.12361 | 95.06388 | 38901 ft | 541 kts | 131° |
| 2026-05-05 04:47 | 43.09999 | 95.10343 | 39000 ft | 530 kts | 142° |
| 2026-05-05 04:47 | 43.07248 | 95.13598 | 39164 ft | 519 kts | 151° |
| 2026-05-05 04:48 | 43.04336 | 95.16504 | 39304 ft | 517 kts | 153° |
| 2026-05-05 04:48 | 43.01381 | 95.19286 | 39444 ft | 515 kts | 154° |
| 2026-05-05 04:48 | 42.98411 | 95.22009 | 39594 ft | 515 kts | 154° |
| 2026-05-05 04:48 | 42.95434 | 95.24720 | 39732 ft | 515 kts | 154° |
| 2026-05-05 04:49 | 42.92457 | 95.27436 | 39867 ft | 515 kts | 154° |
| 2026-05-05 04:49 | 42.89481 | 95.30164 | 39982 ft | 515 kts | 154° |
| 2026-05-05 04:49 | 42.86518 | 95.32894 | 40154 ft | 514 kts | 154° |
| 2026-05-05 04:50 | 42.80586 | 95.38372 | 40277 ft | 516 kts | 153° |
| 2026-05-05 04:50 | 42.77614 | 95.41118 | 40400 ft | 516 kts | 153° |
| 2026-05-05 04:50 | 42.74646 | 95.43858 | 40517 ft | 516 kts | 153° |
| 2026-05-05 04:50 | 42.71672 | 95.46599 | 40623 ft | 516 kts | 153° |
| 2026-05-05 04:51 | 42.68701 | 95.49335 | 40702 ft | 516 kts | 153° |
| 2026-05-05 04:51 | 42.62758 | 95.54793 | 40850 ft | 517 kts | 154° |
| 2026-05-05 04:52 | 42.56776 | 95.60269 | 40852 ft | 518 kts | 153° |
| 2026-05-05 04:52 | 42.50799 | 95.65736 | 40854 ft | 518 kts | 153° |
| 2026-05-05 04:53 | 42.44987 | 95.71581 | 40842 ft | 530 kts | 143° |
| 2026-05-05 04:53 | 42.42509 | 95.75312 | 40850 ft | 537 kts | 132° |
| 2026-05-05 04:53 | 42.40525 | 95.79641 | 40870 ft | 546 kts | 120° |
| 2026-05-05 04:53 | 42.39151 | 95.84454 | 40864 ft | 552 kts | 108° |
| 2026-05-05 04:54 | 42.38472 | 95.89582 | 40871 ft | 556 kts | 96° |
| 2026-05-05 04:54 | 42.38099 | 95.98285 | 40871 ft | 559 kts | 93° |
| 2026-05-05 04:55 | 42.37887 | 96.08797 | 40866 ft | 560 kts | 92° |
| 2026-05-05 04:55 | 42.37612 | 96.21034 | 40876 ft | 561 kts | 93° |
| 2026-05-05 04:56 | 42.37365 | 96.29864 | 40870 ft | 561 kts | 93° |
| 2026-05-05 04:56 | 42.37043 | 96.40383 | 40856 ft | 559 kts | 93° |
| 2026-05-05 04:57 | 42.36704 | 96.50872 | 40868 ft | 560 kts | 94° |
| 2026-05-05 04:57 | 42.36349 | 96.61436 | 40854 ft | 563 kts | 93° |
| 2026-05-05 04:58 | 42.36001 | 96.72019 | 40847 ft | 564 kts | 93° |
| 2026-05-05 04:58 | 42.35644 | 96.82609 | 40841 ft | 564 kts | 94° |
| 2026-05-05 04:59 | 42.35250 | 96.93217 | 40842 ft | 566 kts | 94° |
| 2026-05-05 04:59 | 42.34869 | 97.03780 | 40823 ft | 564 kts | 93° |
| 2026-05-05 05:00 | 42.34504 | 97.14324 | 40832 ft | 560 kts | 94° |
| 2026-05-05 05:00 | 42.34106 | 97.24888 | 40820 ft | 564 kts | 93° |
| 2026-05-05 05:01 | 42.33689 | 97.35478 | 40808 ft | 566 kts | 94° |
| 2026-05-05 05:01 | 42.33257 | 97.46088 | 40802 ft | 564 kts | 94° |
| 2026-05-05 05:02 | 42.32827 | 97.56664 | 40804 ft | 564 kts | 94° |
| 2026-05-05 05:02 | 42.32386 | 97.67257 | 40788 ft | 565 kts | 94° |
| 2026-05-05 05:03 | 42.31934 | 97.77854 | 40783 ft | 565 kts | 94° |
| 2026-05-05 05:03 | 42.31472 | 97.88455 | 40781 ft | 565 kts | 94° |
| 2026-05-05 05:04 | 42.31001 | 97.99050 | 40767 ft | 565 kts | 94° |
| 2026-05-05 05:04 | 42.30519 | 98.09625 | 40765 ft | 565 kts | 94° |
| 2026-05-05 05:05 | 42.30029 | 98.20214 | 40747 ft | 564 kts | 94° |
| 2026-05-05 05:05 | 42.29528 | 98.30785 | 40749 ft | 563 kts | 94° |
| 2026-05-05 05:06 | 42.29005 | 98.41368 | 40747 ft | 567 kts | 94° |
| 2026-05-05 05:06 | 42.28455 | 98.51982 | 40725 ft | 565 kts | 94° |
| 2026-05-05 05:07 | 42.27896 | 98.62560 | 40735 ft | 565 kts | 95° |
| 2026-05-05 05:07 | 42.27328 | 98.73124 | 40731 ft | 565 kts | 94° |
| 2026-05-05 05:08 | 42.26754 | 98.83640 | 40706 ft | 566 kts | 95° |
| 2026-05-05 05:08 | 42.26168 | 98.94233 | 40712 ft | 566 kts | 95° |
| 2026-05-05 05:09 | 42.25572 | 99.04825 | 40700 ft | 566 kts | 95° |
| 2026-05-05 05:09 | 42.24968 | 99.15406 | 40698 ft | 566 kts | 95° |
| 2026-05-05 05:10 | 42.24351 | 99.26024 | 40686 ft | 567 kts | 95° |
| 2026-05-05 05:10 | 42.23724 | 99.36640 | 40686 ft | 568 kts | 95° |
| 2026-05-05 05:11 | 42.23088 | 99.47254 | 40678 ft | 568 kts | 95° |
| 2026-05-05 05:11 | 42.22441 | 99.57867 | 40660 ft | 568 kts | 95° |
| 2026-05-05 05:12 | 42.21785 | 99.68483 | 40662 ft | 568 kts | 95° |
| 2026-05-05 05:12 | 42.21118 | 99.79106 | 40658 ft | 568 kts | 95° |
| 2026-05-05 05:13 | 42.20441 | 99.89724 | 40647 ft | 568 kts | 95° |
| 2026-05-05 05:13 | 42.19759 | 100.00276 | 40636 ft | 568 kts | 95° |
| 2026-05-05 05:14 | 42.19058 | 100.10966 | 40639 ft | 568 kts | 95° |
| 2026-05-05 05:14 | 42.18357 | 100.21510 | 40633 ft | 569 kts | 95° |
| 2026-05-05 05:15 | 42.17640 | 100.32139 | 40623 ft | 570 kts | 95° |
| 2026-05-05 05:15 | 42.16912 | 100.42776 | 40619 ft | 570 kts | 95° |
| 2026-05-05 05:16 | 42.16175 | 100.53419 | 40614 ft | 570 kts | 95° |
| 2026-05-05 05:16 | 42.15427 | 100.64057 | 40608 ft | 570 kts | 95° |
| 2026-05-05 05:17 | 42.14670 | 100.74690 | 40606 ft | 570 kts | 95° |
| 2026-05-05 05:17 | 42.13904 | 100.85301 | 40607 ft | 570 kts | 95° |
| 2026-05-05 05:18 | 42.13128 | 100.95921 | 40595 ft | 570 kts | 96° |
| 2026-05-05 05:18 | 42.11831 | 101.06411 | 40602 ft | 567 kts | 109° |
| 2026-05-05 05:19 | 42.09401 | 101.16510 | 40594 ft | 567 kts | 111° |
| 2026-05-05 05:19 | 42.06762 | 101.26505 | 40593 ft | 567 kts | 112° |
| 2026-05-05 05:20 | 42.04093 | 101.36482 | 40586 ft | 567 kts | 112° |
| 2026-05-05 05:20 | 42.01439 | 101.46456 | 40593 ft | 566 kts | 111° |
| 2026-05-05 05:21 | 41.98795 | 101.56416 | 40592 ft | 566 kts | 111° |
| 2026-05-05 05:21 | 41.96144 | 101.66373 | 40596 ft | 566 kts | 111° |
| 2026-05-05 05:22 | 41.93483 | 101.76322 | 40591 ft | 566 kts | 112° |
| 2026-05-05 05:22 | 41.90814 | 101.86254 | 40591 ft | 566 kts | 112° |
| 2026-05-05 05:23 | 41.88133 | 101.96192 | 40594 ft | 566 kts | 112° |
| 2026-05-05 05:23 | 41.85466 | 102.06041 | 40594 ft | 566 kts | 112° |
| 2026-05-05 05:24 | 41.82770 | 102.15955 | 40587 ft | 566 kts | 112° |
| 2026-05-05 05:24 | 41.80064 | 102.25866 | 40587 ft | 566 kts | 112° |
| 2026-05-05 05:25 | 41.77351 | 102.35764 | 40589 ft | 566 kts | 112° |
| 2026-05-05 05:25 | 41.74629 | 102.45656 | 40585 ft | 566 kts | 112° |
| 2026-05-05 05:26 | 41.71900 | 102.55533 | 40583 ft | 566 kts | 112° |
| 2026-05-05 05:26 | 41.69162 | 102.65403 | 40575 ft | 566 kts | 112° |
| 2026-05-05 05:27 | 41.66420 | 102.75265 | 40584 ft | 565 kts | 112° |
| 2026-05-05 05:27 | 41.62287 | 102.90047 | 40575 ft | 566 kts | 112° |
| 2026-05-05 05:28 | 41.59520 | 102.99886 | 40573 ft | 566 kts | 112° |
| 2026-05-05 05:28 | 41.56749 | 103.09720 | 40565 ft | 566 kts | 112° |
| 2026-05-05 05:29 | 41.53961 | 103.19538 | 40569 ft | 566 kts | 112° |
| 2026-05-05 05:29 | 41.51165 | 103.29359 | 40558 ft | 566 kts | 112° |
| 2026-05-05 05:30 | 41.48359 | 103.39180 | 40563 ft | 566 kts | 112° |
| 2026-05-05 05:30 | 41.45549 | 103.48976 | 40573 ft | 565 kts | 112° |
| 2026-05-05 05:31 | 41.42732 | 103.58770 | 40562 ft | 567 kts | 112° |
| 2026-05-05 05:31 | 41.39898 | 103.68579 | 40556 ft | 567 kts | 112° |
| 2026-05-05 05:32 | 41.37074 | 103.78317 | 40554 ft | 567 kts | 112° |
| 2026-05-05 05:32 | 41.34222 | 103.88113 | 40554 ft | 568 kts | 112° |
| 2026-05-05 05:33 | 41.31359 | 103.97908 | 40547 ft | 568 kts | 112° |
| 2026-05-05 05:33 | 41.28488 | 104.07700 | 40548 ft | 568 kts | 112° |
| 2026-05-05 05:34 | 41.25608 | 104.17481 | 40551 ft | 568 kts | 112° |
| 2026-05-05 05:34 | 41.22719 | 104.27258 | 40551 ft | 569 kts | 112° |
| 2026-05-05 05:35 | 41.19819 | 104.37033 | 40558 ft | 569 kts | 112° |
| 2026-05-05 05:35 | 41.16910 | 104.46802 | 40560 ft | 569 kts | 113° |
| 2026-05-05 05:36 | 41.13993 | 104.56566 | 40559 ft | 569 kts | 113° |
| 2026-05-05 05:36 | 41.11065 | 104.66317 | 40558 ft | 569 kts | 113° |
| 2026-05-05 05:37 | 41.08080 | 104.76026 | 40564 ft | 568 kts | 115° |
| 2026-05-05 05:37 | 41.04829 | 104.85580 | 40565 ft | 569 kts | 117° |
| 2026-05-05 05:38 | 41.01525 | 104.95086 | 40567 ft | 568 kts | 116° |
| 2026-05-05 05:38 | 40.98267 | 105.04616 | 40567 ft | 571 kts | 115° |
| 2026-05-05 05:39 | 40.95034 | 105.14166 | 40580 ft | 568 kts | 115° |
| 2026-05-05 05:39 | 40.91783 | 105.23697 | 40557 ft | 569 kts | 116° |
| 2026-05-05 05:40 | 40.88527 | 105.33145 | 40564 ft | 569 kts | 116° |
| 2026-05-05 05:40 | 40.85248 | 105.42652 | 40570 ft | 569 kts | 116° |
| 2026-05-05 05:41 | 40.81969 | 105.52148 | 40573 ft | 568 kts | 116° |
| 2026-05-05 05:41 | 40.78681 | 105.61636 | 40584 ft | 568 kts | 116° |
| 2026-05-05 05:42 | 40.75387 | 105.71113 | 40571 ft | 568 kts | 115° |
| 2026-05-05 05:42 | 40.72091 | 105.80571 | 40566 ft | 568 kts | 115° |
| 2026-05-05 05:43 | 40.68787 | 105.90022 | 40584 ft | 568 kts | 116° |
| 2026-05-05 05:43 | 40.65473 | 105.99480 | 40574 ft | 569 kts | 116° |
| 2026-05-05 05:44 | 40.62147 | 106.08923 | 40575 ft | 567 kts | 115° |
| 2026-05-05 05:44 | 40.59380 | 106.16734 | 40575 ft | 567 kts | 115° |
| 2026-05-05 05:45 | 40.56048 | 106.26140 | 40567 ft | 567 kts | 115° |
| 2026-05-05 05:45 | 40.52707 | 106.35538 | 40568 ft | 568 kts | 115° |
| 2026-05-05 05:46 | 40.49352 | 106.44934 | 40558 ft | 568 kts | 115° |
| 2026-05-05 05:46 | 40.45997 | 106.54306 | 40553 ft | 567 kts | 115° |
| 2026-05-05 05:47 | 40.42642 | 106.63658 | 40553 ft | 566 kts | 115° |
| 2026-05-05 05:47 | 40.39278 | 106.73007 | 40557 ft | 567 kts | 115° |
| 2026-05-05 05:48 | 40.35905 | 106.82349 | 40558 ft | 567 kts | 115° |
| 2026-05-05 05:48 | 40.32753 | 106.91814 | 40566 ft | 566 kts | 106° |
| 2026-05-05 05:49 | 40.31885 | 106.96816 | 40564 ft | 562 kts | 94° |
| 2026-05-05 05:49 | 40.31713 | 107.01893 | 40550 ft | 555 kts | 82° |
| 2026-05-05 05:49 | 40.32648 | 107.11865 | 40561 ft | 550 kts | 75° |
| 2026-05-05 05:50 | 40.33917 | 107.21739 | 40549 ft | 549 kts | 75° |
| 2026-05-05 05:50 | 40.35204 | 107.31610 | 40548 ft | 550 kts | 75° |
| 2026-05-05 05:51 | 40.36439 | 107.41501 | 40559 ft | 549 kts | 75° |
| 2026-05-05 05:51 | 40.37625 | 107.51387 | 40547 ft | 548 kts | 75° |
| 2026-05-05 05:52 | 40.38814 | 107.61259 | 40551 ft | 548 kts | 75° |
| 2026-05-05 05:52 | 40.39988 | 107.71074 | 40557 ft | 548 kts | 76° |
| 2026-05-05 05:53 | 40.41164 | 107.80953 | 40541 ft | 548 kts | 76° |
| 2026-05-05 05:53 | 40.42328 | 107.90846 | 40544 ft | 548 kts | 76° |
| 2026-05-05 05:54 | 40.43489 | 108.00736 | 40542 ft | 549 kts | 76° |
| 2026-05-05 05:54 | 40.44634 | 108.10624 | 40543 ft | 546 kts | 76° |
| 2026-05-05 05:55 | 40.45765 | 108.20506 | 40547 ft | 548 kts | 76° |
| 2026-05-05 05:55 | 40.46890 | 108.30406 | 40544 ft | 548 kts | 76° |
| 2026-05-05 05:56 | 40.48008 | 108.40314 | 40540 ft | 549 kts | 76° |
| 2026-05-05 05:56 | 40.49121 | 108.50234 | 40549 ft | 548 kts | 76° |
| 2026-05-05 05:57 | 40.50219 | 108.60136 | 40542 ft | 548 kts | 76° |
| 2026-05-05 05:57 | 40.51312 | 108.70049 | 40539 ft | 548 kts | 76° |
| 2026-05-05 05:58 | 40.52398 | 108.79956 | 40551 ft | 548 kts | 77° |
| 2026-05-05 05:58 | 40.53470 | 108.89854 | 40544 ft | 546 kts | 77° |
| 2026-05-05 05:59 | 40.54525 | 108.99666 | 40555 ft | 546 kts | 77° |
| 2026-05-05 05:59 | 40.55582 | 109.09550 | 40551 ft | 546 kts | 77° |
| 2026-05-05 06:00 | 40.56630 | 109.19429 | 40564 ft | 545 kts | 77° |
| 2026-05-05 06:00 | 40.57666 | 109.29297 | 40584 ft | 545 kts | 77° |
| 2026-05-05 06:01 | 40.58693 | 109.39172 | 40569 ft | 545 kts | 77° |
| 2026-05-05 06:01 | 40.59712 | 109.49044 | 40582 ft | 545 kts | 77° |
| 2026-05-05 06:02 | 40.60722 | 109.58905 | 40592 ft | 544 kts | 77° |
| 2026-05-05 06:02 | 40.61722 | 109.68769 | 40600 ft | 543 kts | 77° |
| 2026-05-05 06:03 | 40.62713 | 109.78624 | 40600 ft | 543 kts | 77° |
| 2026-05-05 06:03 | 40.63695 | 109.88480 | 40608 ft | 542 kts | 78° |
| 2026-05-05 06:04 | 40.64556 | 109.98352 | 40632 ft | 546 kts | 85° |
| 2026-05-05 06:04 | 40.64667 | 110.08366 | 40628 ft | 547 kts | 86° |
| 2026-05-05 06:05 | 40.64615 | 110.18389 | 40633 ft | 547 kts | 87° |
| 2026-05-05 06:05 | 40.64532 | 110.28401 | 40650 ft | 546 kts | 87° |
| 2026-05-05 06:06 | 40.64452 | 110.38394 | 40658 ft | 546 kts | 87° |
| 2026-05-05 06:06 | 40.64375 | 110.48386 | 40670 ft | 546 kts | 87° |
| 2026-05-05 06:07 | 40.64291 | 110.58364 | 40659 ft | 544 kts | 87° |
| 2026-05-05 06:07 | 40.64202 | 110.68273 | 40678 ft | 544 kts | 87° |
| 2026-05-05 06:08 | 40.64108 | 110.78225 | 40664 ft | 542 kts | 87° |
| 2026-05-05 06:08 | 40.64014 | 110.88231 | 40680 ft | 543 kts | 88° |
| 2026-05-05 06:09 | 40.63888 | 110.98094 | 40685 ft | 542 kts | 88° |
| 2026-05-05 06:09 | 40.63757 | 111.08013 | 40682 ft | 542 kts | 88° |
| 2026-05-05 06:10 | 40.63622 | 111.17938 | 40693 ft | 542 kts | 88° |
| 2026-05-05 06:10 | 40.63486 | 111.27857 | 40694 ft | 542 kts | 88° |
| 2026-05-05 06:11 | 40.63334 | 111.37771 | 40694 ft | 542 kts | 88° |
| 2026-05-05 06:11 | 40.63184 | 111.47048 | 40694 ft | 542 kts | 88° |
| 2026-05-05 06:12 | 40.63018 | 111.56962 | 40697 ft | 542 kts | 88° |
| 2026-05-05 06:12 | 40.62843 | 111.66879 | 40705 ft | 542 kts | 88° |
| 2026-05-05 06:13 | 40.62660 | 111.76793 | 40705 ft | 542 kts | 88° |
| 2026-05-05 06:13 | 40.62469 | 111.86705 | 40707 ft | 541 kts | 88° |
| 2026-05-05 06:14 | 40.62288 | 111.96571 | 40717 ft | 539 kts | 88° |
| 2026-05-05 06:14 | 40.62078 | 112.06449 | 40716 ft | 540 kts | 88° |
| 2026-05-05 06:15 | 40.61853 | 112.16323 | 40717 ft | 539 kts | 89° |
| 2026-05-05 06:15 | 40.61621 | 112.26179 | 40731 ft | 539 kts | 89° |
| 2026-05-05 06:16 | 40.61386 | 112.36025 | 40722 ft | 538 kts | 89° |
| 2026-05-05 06:16 | 40.61144 | 112.45882 | 40719 ft | 539 kts | 89° |
| 2026-05-05 06:17 | 40.60822 | 112.55747 | 40710 ft | 540 kts | 91° |
| 2026-05-05 06:17 | 40.60221 | 112.65607 | 40702 ft | 540 kts | 92° |
| 2026-05-05 06:18 | 40.59580 | 112.75456 | 40690 ft | 540 kts | 92° |
| 2026-05-05 06:18 | 40.58765 | 112.85298 | 40682 ft | 541 kts | 93° |
| 2026-05-05 06:19 | 40.58052 | 112.95135 | 40682 ft | 540 kts | 92° |
| 2026-05-05 06:19 | 40.57405 | 113.04979 | 40666 ft | 540 kts | 92° |
| 2026-05-05 06:20 | 40.56754 | 113.14819 | 40661 ft | 540 kts | 92° |
| 2026-05-05 06:20 | 40.56086 | 113.24653 | 40659 ft | 540 kts | 92° |
| 2026-05-05 06:21 | 40.55404 | 113.34481 | 40654 ft | 539 kts | 92° |
| 2026-05-05 06:21 | 40.54713 | 113.44303 | 40659 ft | 540 kts | 92° |
| 2026-05-05 06:22 | 40.54020 | 113.54039 | 40651 ft | 538 kts | 92° |
| 2026-05-05 06:22 | 40.53316 | 113.63829 | 40649 ft | 538 kts | 92° |
| 2026-05-05 06:23 | 40.52604 | 113.73624 | 40641 ft | 539 kts | 92° |
| 2026-05-05 06:23 | 40.51880 | 113.83432 | 40625 ft | 539 kts | 92° |
| 2026-05-05 06:24 | 40.51151 | 113.93231 | 40622 ft | 539 kts | 92° |
| 2026-05-05 06:24 | 40.50437 | 114.03025 | 40627 ft | 538 kts | 91° |
| 2026-05-05 06:25 | 40.50018 | 114.12817 | 40608 ft | 535 kts | 89° |
| 2026-05-05 06:25 | 40.49677 | 114.22573 | 40618 ft | 535 kts | 89° |
| 2026-05-05 06:26 | 40.49288 | 114.32330 | 40601 ft | 535 kts | 89° |
| 2026-05-05 06:26 | 40.48862 | 114.42082 | 40606 ft | 535 kts | 90° |
| 2026-05-05 06:27 | 40.48192 | 114.56681 | 40618 ft | 533 kts | 90° |
| 2026-05-05 06:28 | 40.47737 | 114.66402 | 40600 ft | 533 kts | 90° |
| 2026-05-05 06:28 | 40.47277 | 114.76118 | 40600 ft | 533 kts | 90° |
| 2026-05-05 06:29 | 40.46808 | 114.85828 | 40610 ft | 533 kts | 90° |
| 2026-05-05 06:29 | 40.46331 | 114.95538 | 40599 ft | 533 kts | 90° |
| 2026-05-05 06:30 | 40.45846 | 115.05247 | 40600 ft | 533 kts | 90° |
| 2026-05-05 06:30 | 40.45356 | 115.14886 | 40608 ft | 532 kts | 90° |
| 2026-05-05 06:31 | 40.44854 | 115.24598 | 40607 ft | 534 kts | 90° |
| 2026-05-05 06:31 | 40.44345 | 115.34311 | 40608 ft | 532 kts | 90° |
| 2026-05-05 06:32 | 40.43828 | 115.43983 | 40643 ft | 530 kts | 90° |
| 2026-05-05 06:32 | 40.43395 | 115.52001 | 40656 ft | 530 kts | 90° |
| 2026-05-05 06:33 | 40.42756 | 115.61634 | 40639 ft | 531 kts | 93° |
| 2026-05-05 06:33 | 40.41931 | 115.71265 | 40660 ft | 532 kts | 93° |
| 2026-05-05 06:34 | 40.41101 | 115.80904 | 40672 ft | 531 kts | 93° |
| 2026-05-05 06:34 | 40.40292 | 115.90544 | 40681 ft | 531 kts | 92° |
| 2026-05-05 06:35 | 40.39490 | 116.00187 | 40695 ft | 532 kts | 93° |
| 2026-05-05 06:35 | 40.38681 | 116.09839 | 40685 ft | 533 kts | 93° |
| 2026-05-05 06:36 | 40.37861 | 116.19497 | 40689 ft | 533 kts | 93° |
| 2026-05-05 06:36 | 40.37035 | 116.29150 | 40693 ft | 532 kts | 94° |
| 2026-05-05 06:37 | 40.36202 | 116.38790 | 40700 ft | 532 kts | 93° |
| 2026-05-05 06:37 | 40.35357 | 116.48435 | 40702 ft | 533 kts | 93° |
| 2026-05-05 06:38 | 40.34499 | 116.58068 | 40711 ft | 533 kts | 94° |
| 2026-05-05 06:38 | 40.32475 | 116.67421 | 40705 ft | 537 kts | 115° |
| 2026-05-05 06:38 | 40.30593 | 116.71647 | 40702 ft | 538 kts | 126° |
| 2026-05-05 06:39 | 40.28153 | 116.75344 | 40709 ft | 537 kts | 138° |
| 2026-05-05 06:39 | 40.25281 | 116.78336 | 40703 ft | 533 kts | 150° |
| 2026-05-05 06:39 | 40.22023 | 116.80596 | 40709 ft | 529 kts | 161° |
| 2026-05-05 06:39 | 40.18543 | 116.82026 | 40698 ft | 522 kts | 173° |
| 2026-05-05 06:40 | 40.14965 | 116.82611 | 40710 ft | 515 kts | 184° |
| 2026-05-05 06:40 | 40.07944 | 116.81600 | 40710 ft | 508 kts | 193° |
| 2026-05-05 06:41 | 40.00805 | 116.81462 | 40695 ft | 519 kts | 179° |
| 2026-05-05 06:41 | 39.93617 | 116.82625 | 40691 ft | 522 kts | 176° |
| 2026-05-05 06:42 | 39.86435 | 116.84079 | 40692 ft | 522 kts | 175° |
| 2026-05-05 06:42 | 39.79608 | 116.85487 | 40691 ft | 522 kts | 175° |
| 2026-05-05 06:43 | 39.72427 | 116.86980 | 40686 ft | 523 kts | 175° |
| 2026-05-05 06:43 | 39.65249 | 116.88481 | 40688 ft | 522 kts | 175° |
| 2026-05-05 06:44 | 39.58077 | 116.89969 | 40689 ft | 522 kts | 175° |
| 2026-05-05 06:44 | 39.50904 | 116.91448 | 40690 ft | 522 kts | 175° |
| 2026-05-05 06:45 | 39.44141 | 116.92838 | 40692 ft | 522 kts | 175° |
| 2026-05-05 06:45 | 39.36963 | 116.94312 | 40691 ft | 522 kts | 175° |
| 2026-05-05 06:46 | 39.29784 | 116.95782 | 40685 ft | 523 kts | 175° |
| 2026-05-05 06:46 | 39.22625 | 116.97531 | 40693 ft | 527 kts | 166° |
| 2026-05-05 06:47 | 39.16358 | 117.01324 | 40706 ft | 533 kts | 146° |
| 2026-05-05 06:47 | 39.13546 | 117.04340 | 40703 ft | 535 kts | 135° |
| 2026-05-05 06:47 | 39.11152 | 117.08075 | 40693 ft | 534 kts | 122° |
| 2026-05-05 06:48 | 39.08318 | 117.16203 | 40706 ft | 529 kts | 101° |
| 2026-05-05 06:48 | 39.07771 | 117.24953 | 40728 ft | 518 kts | 80° |
| 2026-05-05 06:49 | 39.07999 | 117.34252 | 40723 ft | 525 kts | 93° |
| 2026-05-05 06:49 | 39.07812 | 117.43610 | 40722 ft | 523 kts | 88° |
| 2026-05-05 06:50 | 39.07707 | 117.52922 | 40726 ft | 524 kts | 88° |
| 2026-05-05 06:50 | 39.07609 | 117.61123 | 40710 ft | 523 kts | 88° |
| 2026-05-05 06:51 | 39.07494 | 117.70485 | 40725 ft | 523 kts | 88° |
| 2026-05-05 06:51 | 39.07373 | 117.79843 | 40723 ft | 523 kts | 88° |
| 2026-05-05 06:52 | 39.07244 | 117.89205 | 40726 ft | 523 kts | 88° |
| 2026-05-05 06:52 | 39.07107 | 117.98563 | 40730 ft | 523 kts | 88° |
| 2026-05-05 06:53 | 39.06313 | 118.07902 | 40725 ft | 527 kts | 98° |
| 2026-05-05 06:53 | 39.04914 | 118.17157 | 40725 ft | 528 kts | 99° |
| 2026-05-05 06:54 | 39.03421 | 118.26404 | 40729 ft | 528 kts | 99° |
| 2026-05-05 06:54 | 39.01924 | 118.35645 | 40732 ft | 528 kts | 99° |
| 2026-05-05 06:55 | 39.00433 | 118.44888 | 40738 ft | 528 kts | 99° |
| 2026-05-05 06:55 | 38.98946 | 118.54126 | 40738 ft | 528 kts | 99° |
| 2026-05-05 06:56 | 38.97449 | 118.63361 | 40743 ft | 528 kts | 100° |
| 2026-05-05 06:56 | 38.95940 | 118.72589 | 40746 ft | 527 kts | 100° |
| 2026-05-05 06:57 | 38.94430 | 118.81782 | 40747 ft | 527 kts | 100° |
| 2026-05-05 06:57 | 38.92910 | 118.90993 | 40752 ft | 527 kts | 100° |
| 2026-05-05 06:58 | 38.91386 | 119.00195 | 40754 ft | 526 kts | 100° |
| 2026-05-05 06:58 | 38.89861 | 119.09378 | 40757 ft | 526 kts | 101° |
| 2026-05-05 06:59 | 38.88321 | 119.18549 | 40758 ft | 525 kts | 101° |
| 2026-05-05 06:59 | 38.86773 | 119.27717 | 40761 ft | 525 kts | 101° |
| 2026-05-05 07:00 | 38.85221 | 119.36871 | 40764 ft | 525 kts | 101° |
| 2026-05-05 07:00 | 38.83676 | 119.45947 | 40766 ft | 525 kts | 101° |
| 2026-05-05 07:01 | 38.82112 | 119.55093 | 40776 ft | 525 kts | 101° |
| 2026-05-05 07:01 | 38.80541 | 119.64225 | 40774 ft | 524 kts | 101° |
| 2026-05-05 07:02 | 38.78965 | 119.73344 | 40780 ft | 524 kts | 101° |
| 2026-05-05 07:02 | 38.77383 | 119.82456 | 40779 ft | 524 kts | 101° |
| 2026-05-05 07:03 | 38.75847 | 119.91569 | 40781 ft | 523 kts | 100° |
| 2026-05-05 07:03 | 38.74355 | 120.00694 | 40788 ft | 523 kts | 101° |
| 2026-05-05 07:04 | 38.72688 | 120.09759 | 40795 ft | 524 kts | 109° |
| 2026-05-05 07:04 | 38.71185 | 120.14006 | 40794 ft | 524 kts | 121° |
| 2026-05-05 07:04 | 38.69030 | 120.17740 | 40791 ft | 521 kts | 135° |
| 2026-05-05 07:04 | 38.66292 | 120.20743 | 40796 ft | 518 kts | 149° |
| 2026-05-05 07:05 | 38.63115 | 120.22851 | 40799 ft | 512 kts | 163° |
| 2026-05-05 07:05 | 38.56608 | 120.26550 | 40799 ft | 519 kts | 146° |
| 2026-05-05 07:05 | 38.53906 | 120.29606 | 40802 ft | 521 kts | 131° |
| 2026-05-05 07:06 | 38.51874 | 120.33433 | 40802 ft | 521 kts | 115° |
| 2026-05-05 07:06 | 38.50659 | 120.37771 | 40802 ft | 519 kts | 100° |
| 2026-05-05 07:06 | 38.50336 | 120.42323 | 40804 ft | 514 kts | 84° |
| 2026-05-05 07:06 | 38.50918 | 120.46781 | 40803 ft | 507 kts | 69° |
| 2026-05-05 07:07 | 38.52353 | 120.50838 | 40803 ft | 498 kts | 53° |
| 2026-05-05 07:07 | 38.54524 | 120.54220 | 40806 ft | 489 kts | 38° |
| 2026-05-05 07:07 | 38.57068 | 120.57090 | 40807 ft | 490 kts | 40° |
| 2026-05-05 07:08 | 38.61357 | 120.63959 | 40807 ft | 503 kts | 58° |
| 2026-05-05 07:08 | 38.62756 | 120.68078 | 40804 ft | 509 kts | 70° |
| 2026-05-05 07:08 | 38.63494 | 120.72461 | 40812 ft | 514 kts | 82° |
| 2026-05-05 07:08 | 38.63551 | 120.77035 | 40816 ft | 517 kts | 94° |
| 2026-05-05 07:09 | 38.62915 | 120.81568 | 40815 ft | 520 kts | 105° |
| 2026-05-05 07:09 | 38.61616 | 120.85883 | 40813 ft | 521 kts | 117° |
| 2026-05-05 07:09 | 38.59709 | 120.89821 | 40813 ft | 521 kts | 128° |
| 2026-05-05 07:09 | 38.57273 | 120.93231 | 40813 ft | 520 kts | 140° |
| 2026-05-05 07:10 | 38.54440 | 120.96190 | 40810 ft | 520 kts | 140° |
| 2026-05-05 07:10 | 38.49650 | 121.03017 | 40822 ft | 522 kts | 122° |
| 2026-05-05 07:10 | 38.47967 | 121.07115 | 40822 ft | 521 kts | 111° |
| 2026-05-05 07:11 | 38.46869 | 121.11508 | 40826 ft | 520 kts | 103° |
| 2026-05-05 07:11 | 38.45263 | 121.20498 | 40828 ft | 520 kts | 100° |
| 2026-05-05 07:12 | 38.43871 | 121.29559 | 40823 ft | 520 kts | 99° |
| 2026-05-05 07:12 | 38.42471 | 121.38608 | 40840 ft | 520 kts | 100° |
| 2026-05-05 07:13 | 38.41023 | 121.47646 | 40834 ft | 520 kts | 100° |
| 2026-05-05 07:13 | 38.39533 | 121.56663 | 40846 ft | 520 kts | 101° |
| 2026-05-05 07:14 | 38.38015 | 121.65676 | 40851 ft | 520 kts | 101° |
| 2026-05-05 07:14 | 38.36496 | 121.74686 | 40856 ft | 520 kts | 101° |
| 2026-05-05 07:15 | 38.34976 | 121.83685 | 40855 ft | 520 kts | 101° |
| 2026-05-05 07:15 | 38.33450 | 121.92687 | 40861 ft | 519 kts | 101° |
| 2026-05-05 07:16 | 38.31919 | 122.01674 | 40867 ft | 519 kts | 101° |
| 2026-05-05 07:16 | 38.30381 | 122.10661 | 40869 ft | 519 kts | 101° |
| 2026-05-05 07:17 | 38.28836 | 122.19639 | 40877 ft | 519 kts | 101° |
| 2026-05-05 07:17 | 38.27306 | 122.28611 | 40878 ft | 519 kts | 100° |
| 2026-05-05 07:18 | 38.25980 | 122.37622 | 40879 ft | 519 kts | 102° |
| 2026-05-05 07:18 | 38.23423 | 122.46176 | 40889 ft | 519 kts | 121° |
| 2026-05-05 07:18 | 38.21374 | 122.49859 | 40890 ft | 517 kts | 132° |
| 2026-05-05 07:19 | 38.18943 | 122.53308 | 40895 ft | 517 kts | 134° |
| 2026-05-05 07:19 | 38.13936 | 122.59794 | 40900 ft | 517 kts | 136° |
| 2026-05-05 07:20 | 38.08829 | 122.66232 | 40908 ft | 517 kts | 136° |
| 2026-05-05 07:20 | 38.04623 | 122.71626 | 40908 ft | 517 kts | 135° |
| 2026-05-05 07:21 | 37.99597 | 122.78142 | 40916 ft | 517 kts | 135° |
| 2026-05-05 07:21 | 37.94574 | 122.84659 | 40929 ft | 517 kts | 135° |
| 2026-05-05 07:22 | 37.89544 | 122.91167 | 40927 ft | 517 kts | 136° |
| 2026-05-05 07:22 | 37.84514 | 122.97656 | 40936 ft | 516 kts | 136° |
| 2026-05-05 07:23 | 37.79474 | 123.04141 | 40936 ft | 517 kts | 136° |
| 2026-05-05 07:23 | 37.74434 | 123.10614 | 40952 ft | 517 kts | 136° |
| 2026-05-05 07:24 | 37.69386 | 123.17084 | 40955 ft | 517 kts | 136° |
| 2026-05-05 07:24 | 37.64337 | 123.23541 | 40955 ft | 517 kts | 136° |
| 2026-05-05 07:25 | 37.59280 | 123.29997 | 40964 ft | 517 kts | 136° |
| 2026-05-05 07:25 | 37.54581 | 123.36864 | 40963 ft | 518 kts | 129° |
| 2026-05-05 07:26 | 37.50212 | 123.44092 | 40970 ft | 519 kts | 128° |
| 2026-05-05 07:26 | 37.45885 | 123.51384 | 40980 ft | 520 kts | 128° |
| 2026-05-05 07:27 | 37.41554 | 123.58663 | 40975 ft | 520 kts | 128° |
| 2026-05-05 07:27 | 37.37206 | 123.65930 | 40976 ft | 520 kts | 128° |
| 2026-05-05 07:28 | 37.32848 | 123.73187 | 40984 ft | 520 kts | 128° |
| 2026-05-05 07:28 | 37.28485 | 123.80436 | 40990 ft | 520 kts | 128° |
| 2026-05-05 07:29 | 37.24147 | 123.87628 | 40989 ft | 520 kts | 128° |
| 2026-05-05 07:29 | 37.19921 | 123.94994 | 40997 ft | 521 kts | 121° |
| 2026-05-05 07:30 | 37.17346 | 124.03447 | 40999 ft | 522 kts | 100° |
| 2026-05-05 07:30 | 37.17036 | 124.12514 | 41005 ft | 521 kts | 87° |
| 2026-05-05 07:30 | 37.17184 | 124.17066 | 41006 ft | 522 kts | 86° |
| 2026-05-05 07:31 | 37.17375 | 124.21575 | 40624 ft | 517 kts | 85° |
| 2026-05-05 07:31 | 37.17578 | 124.26081 | 39888 ft | 519 kts | 86° |
| 2026-05-05 07:31 | 37.17751 | 124.30609 | 39175 ft | 520 kts | 87° |
| 2026-05-05 07:31 | 37.17887 | 124.35146 | 38499 ft | 520 kts | 87° |
| 2026-05-05 07:32 | 37.18000 | 124.39674 | 37708 ft | 520 kts | 87° |
| 2026-05-05 07:32 | 37.18106 | 124.44201 | 36942 ft | 518 kts | 87° |
| 2026-05-05 07:32 | 37.18207 | 124.48710 | 36245 ft | 515 kts | 87° |
| 2026-05-05 07:32 | 37.18303 | 124.53186 | 35517 ft | 513 kts | 87° |
| 2026-05-05 07:33 | 37.18399 | 124.57656 | 34764 ft | 512 kts | 87° |
| 2026-05-05 07:33 | 37.18493 | 124.62106 | 34093 ft | 509 kts | 87° |
| 2026-05-05 07:33 | 37.18588 | 124.66532 | 33377 ft | 506 kts | 87° |
| 2026-05-05 07:33 | 37.18680 | 124.70903 | 32673 ft | 494 kts | 87° |
| 2026-05-05 07:34 | 37.18769 | 124.75163 | 31525 ft | 486 kts | 87° |
| 2026-05-05 07:34 | 37.18858 | 124.79380 | 30360 ft | 480 kts | 88° |
| 2026-05-05 07:34 | 37.18944 | 124.83516 | 29277 ft | 469 kts | 88° |
| 2026-05-05 07:34 | 37.19028 | 124.87564 | 28111 ft | 461 kts | 88° |
| 2026-05-05 07:35 | 37.19106 | 124.91543 | 27032 ft | 451 kts | 88° |
| 2026-05-05 07:35 | 37.19179 | 124.95436 | 25966 ft | 443 kts | 88° |
| 2026-05-05 07:35 | 37.19252 | 124.99260 | 24944 ft | 434 kts | 88° |
| 2026-05-05 07:35 | 37.19322 | 125.02999 | 24203 ft | 421 kts | 88° |
| 2026-05-05 07:36 | 37.19387 | 125.06539 | 23758 ft | 401 kts | 88° |
| 2026-05-05 07:36 | 37.19449 | 125.09953 | 23269 ft | 383 kts | 88° |
| 2026-05-05 07:36 | 37.19507 | 125.13221 | 22832 ft | 370 kts | 88° |
| 2026-05-05 07:36 | 37.19563 | 125.16432 | 22398 ft | 367 kts | 88° |
| 2026-05-05 07:37 | 37.19619 | 125.19630 | 21969 ft | 366 kts | 88° |
| 2026-05-05 07:37 | 37.19674 | 125.22812 | 21548 ft | 364 kts | 88° |
| 2026-05-05 07:37 | 37.19728 | 125.25973 | 21121 ft | 362 kts | 88° |
| 2026-05-05 07:37 | 37.19780 | 125.29125 | 20695 ft | 360 kts | 88° |
| 2026-05-05 07:38 | 37.19831 | 125.32274 | 20418 ft | 368 kts | 88° |
| 2026-05-05 07:38 | 37.19884 | 125.35545 | 20278 ft | 379 kts | 89° |
| 2026-05-05 07:38 | 37.19935 | 125.38854 | 20025 ft | 380 kts | 88° |
| 2026-05-05 07:38 | 37.19987 | 125.42168 | 19783 ft | 379 kts | 89° |
| 2026-05-05 07:39 | 37.20041 | 125.45462 | 19540 ft | 377 kts | 88° |
| 2026-05-05 07:39 | 37.20404 | 125.48711 | 19293 ft | 376 kts | 72° |
| 2026-05-05 07:39 | 37.21499 | 125.51651 | 19035 ft | 370 kts | 59° |
| 2026-05-05 07:39 | 37.22834 | 125.54388 | 18657 ft | 366 kts | 57° |
| 2026-05-05 07:40 | 37.24181 | 125.57084 | 18193 ft | 364 kts | 58° |
| 2026-05-05 07:40 | 37.25515 | 125.59769 | 17710 ft | 361 kts | 58° |
| 2026-05-05 07:40 | 37.26835 | 125.62441 | 17247 ft | 359 kts | 58° |
| 2026-05-05 07:40 | 37.28145 | 125.65105 | 16812 ft | 356 kts | 58° |
| 2026-05-05 07:41 | 37.29446 | 125.67759 | 16435 ft | 360 kts | 58° |
| 2026-05-05 07:41 | 37.30764 | 125.70448 | 15948 ft | 362 kts | 58° |
| 2026-05-05 07:41 | 37.32057 | 125.73150 | 15436 ft | 359 kts | 62° |
| 2026-05-05 07:41 | 37.32899 | 125.76063 | 14937 ft | 355 kts | 81° |
| 2026-05-05 07:42 | 37.32878 | 125.79135 | 14466 ft | 350 kts | 99° |
| 2026-05-05 07:42 | 37.32484 | 125.82139 | 13980 ft | 347 kts | 101° |
| 2026-05-05 07:42 | 37.32054 | 125.85113 | 13426 ft | 345 kts | 101° |
| 2026-05-05 07:42 | 37.31631 | 125.88080 | 12813 ft | 345 kts | 101° |
| 2026-05-05 07:43 | 37.31074 | 125.90997 | 12187 ft | 343 kts | 113° |
| 2026-05-05 07:43 | 37.29838 | 125.93529 | 11606 ft | 339 kts | 129° |
| 2026-05-05 07:43 | 37.28371 | 125.95795 | 11343 ft | 329 kts | 131° |
| 2026-05-05 07:43 | 37.26943 | 125.97971 | 11151 ft | 317 kts | 131° |
| 2026-05-05 07:44 | 37.25576 | 126.00076 | 10937 ft | 306 kts | 130° |
| 2026-05-05 07:44 | 37.24512 | 126.02357 | 10598 ft | 304 kts | 110° |
| 2026-05-05 07:44 | 37.24353 | 126.04976 | 10180 ft | 305 kts | 79° |
| 2026-05-05 07:44 | 37.25190 | 126.07397 | 9749 ft | 304 kts | 56° |
| 2026-05-05 07:45 | 37.26406 | 126.09551 | 9288 ft | 302 kts | 53° |
| 2026-05-05 07:45 | 37.27774 | 126.11532 | 8815 ft | 299 kts | 37° |
| 2026-05-05 07:45 | 37.29642 | 126.12554 | 8350 ft | 293 kts | 5° |
| 2026-05-05 07:45 | 37.31601 | 126.12219 | 7908 ft | 283 kts | 333° |
| 2026-05-05 07:46 | 37.33178 | 126.10859 | 7491 ft | 277 kts | 317° |
| 2026-05-05 07:46 | 37.34645 | 126.09295 | 7058 ft | 275 kts | 318° |
| 2026-05-05 07:46 | 37.36139 | 126.07789 | 6652 ft | 274 kts | 319° |
| 2026-05-05 07:46 | 37.37651 | 126.06333 | 6238 ft | 273 kts | 320° |
| 2026-05-05 07:47 | 37.39167 | 126.04915 | 5884 ft | 269 kts | 321° |
| 2026-05-05 07:47 | 37.40654 | 126.03559 | 5704 ft | 258 kts | 321° |
| 2026-05-05 07:47 | 37.42084 | 126.02266 | 5558 ft | 248 kts | 321° |
| 2026-05-05 07:47 | 37.43524 | 126.01142 | 5417 ft | 240 kts | 334° |
| 2026-05-05 07:48 | 37.45150 | 126.00871 | 5235 ft | 239 kts | 7° |
| 2026-05-05 07:48 | 37.46617 | 126.01774 | 5013 ft | 237 kts | 43° |
| 2026-05-05 07:48 | 37.47677 | 126.03369 | 4791 ft | 238 kts | 54° |
| 2026-05-05 07:48 | 37.48632 | 126.05079 | 4433 ft | 238 kts | 55° |
| 2026-05-05 07:49 | 37.49534 | 126.06820 | 4154 ft | 236 kts | 63° |
| 2026-05-05 07:49 | 37.49953 | 126.08801 | 4019 ft | 234 kts | 94° |
| 2026-05-05 07:49 | 37.49503 | 126.10711 | 3891 ft | 226 kts | 127° |
| 2026-05-05 07:49 | 37.48415 | 126.12077 | 3777 ft | 220 kts | 147° |
| 2026-05-05 07:50 | 37.47194 | 126.13171 | 3650 ft | 218 kts | 149° |
| 2026-05-05 07:50 | 37.45945 | 126.14256 | 3534 ft | 218 kts | 149° |
| 2026-05-05 07:50 | 37.44702 | 126.15352 | 3407 ft | 218 kts | 148° |
| 2026-05-05 07:50 | 37.43465 | 126.16457 | 3280 ft | 218 kts | 149° |
| 2026-05-05 07:51 | 37.42237 | 126.17547 | 3161 ft | 215 kts | 149° |
| 2026-05-05 07:51 | 37.41020 | 126.18631 | 3018 ft | 214 kts | 148° |
| 2026-05-05 07:51 | 37.39814 | 126.19709 | 2898 ft | 213 kts | 149° |
| 2026-05-05 07:51 | 37.38607 | 126.20786 | 2769 ft | 212 kts | 149° |
| 2026-05-05 07:52 | 37.37687 | 126.21602 | 2672 ft | 212 kts | 149° |
| 2026-05-05 07:52 | 37.36550 | 126.22785 | 2541 ft | 215 kts | 136° |
| 2026-05-05 07:52 | 37.35889 | 126.24484 | 2407 ft | 225 kts | 104° |
| 2026-05-05 07:52 | 37.36109 | 126.26446 | 2275 ft | 235 kts | 67° |
| 2026-05-05 07:53 | 37.36984 | 126.28195 | 2153 ft | 238 kts | 56° |
| 2026-05-05 07:53 | 37.37966 | 126.29858 | 2026 ft | 237 kts | 55° |
| 2026-05-05 07:53 | 37.38962 | 126.31514 | 1888 ft | 238 kts | 53° |
| 2026-05-05 07:53 | 37.40245 | 126.32815 | 1754 ft | 239 kts | 21° |
| 2026-05-05 07:54 | 37.41844 | 126.32999 | 1630 ft | 229 kts | 341° |
| 2026-05-05 07:54 | 37.43237 | 126.32144 | 1596 ft | 221 kts | 321° |
| 2026-05-05 07:54 | 37.44492 | 126.31020 | 1593 ft | 222 kts | 318° |
| 2026-05-05 07:54 | 37.45737 | 126.29872 | 1594 ft | 222 kts | 318° |
| 2026-05-05 07:55 | 37.46991 | 126.28733 | 1602 ft | 222 kts | 319° |
| 2026-05-05 07:55 | 37.48247 | 126.27595 | 1591 ft | 223 kts | 319° |
| 2026-05-05 07:55 | 37.49509 | 126.26456 | 1595 ft | 223 kts | 320° |
| 2026-05-05 07:55 | 37.50768 | 126.25326 | 1600 ft | 222 kts | 320° |
| 2026-05-05 07:56 | 37.52026 | 126.24207 | 1599 ft | 220 kts | 319° |
| 2026-05-05 07:56 | 37.53277 | 126.23090 | 1601 ft | 222 kts | 318° |
| 2026-05-05 07:56 | 37.54537 | 126.21956 | 1600 ft | 223 kts | 319° |
| 2026-05-05 07:56 | 37.55842 | 126.20926 | 1593 ft | 230 kts | 332° |
| 2026-05-05 07:57 | 37.57438 | 126.20800 | 1600 ft | 236 kts | 14° |
| 2026-05-05 07:57 | 37.58765 | 126.21944 | 1604 ft | 233 kts | 56° |
| 2026-05-05 07:57 | 37.59590 | 126.23656 | 1589 ft | 232 kts | 64° |
| 2026-05-05 07:57 | 37.60393 | 126.25433 | 1607 ft | 235 kts | 62° |
| 2026-05-05 07:58 | 37.61075 | 126.27281 | 1599 ft | 229 kts | 84° |
| 2026-05-05 07:58 | 37.60857 | 126.29174 | 1619 ft | 216 kts | 121° |
| 2026-05-05 07:58 | 37.59923 | 126.30548 | 1597 ft | 198 kts | 152° |
| 2026-05-05 07:58 | 37.58808 | 126.31376 | 1626 ft | 176 kts | 156° |
| 2026-05-05 07:59 | 37.57819 | 126.32158 | 1621 ft | 162 kts | 152° |
| 2026-05-05 07:59 | 37.56912 | 126.32981 | 1607 ft | 160 kts | 151° |
| 2026-05-05 07:59 | 37.56040 | 126.33768 | 1596 ft | 149 kts | 152° |
| 2026-05-05 07:59 | 37.55308 | 126.34418 | 1595 ft | 145 kts | 152° |
| 2026-05-05 08:00 | 37.54485 | 126.35152 | 1600 ft | 146 kts | 152° |
| 2026-05-05 08:00 | 37.53667 | 126.35880 | 1591 ft | 141 kts | 152° |
| 2026-05-05 08:00 | 37.52878 | 126.36578 | 1448 ft | 137 kts | 151° |
| 2026-05-05 08:00 | 37.52113 | 126.37255 | 1243 ft | 131 kts | 150° |
| 2026-05-05 08:01 | 37.51370 | 126.37918 | 1066 ft | 131 kts | 151° |
| 2026-05-05 08:01 | 37.50619 | 126.38585 | 867 ft | 131 kts | 150° |
| 2026-05-05 08:01 | 37.49870 | 126.39252 | 689 ft | 132 kts | 149° |
| 2026-05-05 08:01 | 37.49119 | 126.39921 | 510 ft | 133 kts | 150° |
| 2026-05-05 08:02 | 37.48360 | 126.40595 | 329 ft | 133 kts | 150° |
| 2026-05-05 08:02 | 37.47606 | 126.41265 | 156 ft | 133 kts | 150° |
| 2026-05-05 08:02 | 37.46855 | 126.41937 | 41 ft | 129 kts | 149° |
| 2026-05-05 08:02 | 37.46267 | 126.42458 | 40 ft | 65 kts | 145° |
| 2026-05-05 08:03 | 37.45937 | 126.42753 | 39 ft | 55 kts | 145° |
| 2026-05-05 08:03 | 37.45716 | 126.42957 | 41 ft | 31 kts | 137° |
| 2026-05-05 08:03 | 37.45595 | 126.43183 | 40 ft | 32 kts | 114° |
| 2026-05-05 08:03 | 37.45497 | 126.43403 | 39 ft | 26 kts | 136° |
| 2026-05-05 08:04 | 37.45394 | 126.43499 | 39 ft | 8 kts | 145° |
| 2026-05-05 08:04 | 37.45359 | 126.43555 | 38 ft | 9 kts | 93° |
| 2026-05-05 08:04 | 37.45383 | 126.43637 | 38 ft | 11 kts | 87° |
| 2026-05-05 08:04 | 37.45331 | 126.43709 | 38 ft | 13 kts | 143° |
| 2026-05-05 08:05 | 37.45250 | 126.43784 | 38 ft | 16 kts | 146° |
| 2026-05-05 08:05 | 37.45151 | 126.43869 | 38 ft | 19 kts | 145° |
| 2026-05-05 08:05 | 37.45037 | 126.43970 | 38 ft | 21 kts | 145° |
| 2026-05-05 08:05 | 37.44972 | 126.44054 | 39 ft | 13 kts | 103° |
| 2026-05-05 08:06 | 37.45011 | 126.44162 | 38 ft | 15 kts | 57° |
| 2026-05-05 08:06 | 37.45019 | 126.44299 | 38 ft | 13 kts | 105° |
| 2026-05-05 08:06 | 37.44948 | 126.44379 | 38 ft | 15 kts | 135° |
| 2026-05-05 08:06 | 37.44878 | 126.44495 | 38 ft | 18 kts | 126° |
| 2026-05-05 08:07 | 37.44827 | 126.44584 | 38 ft | 11 kts | 127° |
| 2026-05-05 08:07 | 37.44766 | 126.44610 | 38 ft | 12 kts | 192° |
| 2026-05-05 08:07 | 37.44746 | 126.44608 | 38 ft | 0 kts | 171° |
| 2026-05-05 08:07 | 37.44742 | 126.44614 | 38 ft | 1 kts | 140° |
| 2026-05-05 08:08 | 37.44743 | 126.44626 | 38 ft | 1 kts | 86° |
| 2026-05-05 08:08 | 37.44753 | 126.44654 | 38 ft | 7 kts | 76° |
| 2026-05-05 08:08 | 37.44747 | 126.44703 | 38 ft | 2 kts | 108° |
| 2026-05-05 08:08 | 37.44742 | 126.44722 | 38 ft | 4 kts | 108° |
| 2026-05-05 08:09 | 37.44741 | 126.44728 | 38 ft | 0 kts | 108° |
| 2026-05-05 08:09 | 37.44740 | 126.44732 | 38 ft | 0 kts | 107° |